Terminal Aerodrome Forecast
Issued by NWS

Current Version | Previous Version | Graphics & Text | Print | Product List | Glossary On
Versions: 1 2 3 4 5 6 7 8 9 10 11 12 13 14 15 16 17 18 19 20 21 22 23 24
000
FTUS41 KRLX 231100
TAFCKB
TAF
KCKB 231120Z 2312/2412 25007KT P6SM SCT070
     FM231400 25011G17KT P6SM BKN035
     FM231600 27014G24KT P6SM BKN035
     FM240000 28008KT P6SM BKN035
     FM240600 29004KT P6SM SCT035=

USA.gov is the U.S. government's official web portal to all federal, state and local government web resources and services.